Aérodrome :
LOGIN :

S'inscrire | Disclaimer

   EN    FR    IT 

 










Légende :    VFR   VFR Marginal   IFR   IFR Intensif   IFR Très Intensif
Visi : 
Plafond : 
>= 8 km
>= 3000ft
5 à 8 km
1000 à 3000 ft
1500m à 5 km
500 à 1000 ft
800 à 1500m
200 à 500 ft
< 800m
< 200 ft
Symboles :   Orages  Brouillard  Fortes neiges  Fortes précipitations  Vent > 20 kt
SIGMETs :   Divers  Orages  Givrage  Turbulence  Onde Orograph.  Cendres Volcan.






- Altitude de l'aérodrome : 779 ft
- Code IATA : CMF


LFLB - Chambery / Aix-Les-Bains

DERNIER METAR :
  • 270200Z AUTO 10001KT 0500 0450 R18/3000U R36/0500N FG FEW005 SCT036 BKN054 03/03 Q1021

METARs EXPIRÉS :
  • 270130Z AUTO 31002KT 0450 0350 R18/1400U R36/0400N FG SCT005 SCT030 BKN049 04/03 Q1021
  • 270100Z AUTO VRB01KT 2400 1000 R18/3000D R36/3700U BR BKN047 BKN058 BKN078 04/03 Q1021
  • 270030Z AUTO VRB02KT 2400 1400 R18/3700D R36/2800D BR BKN047 OVC054 05/04 Q1021
  • 270000Z AUTO VRB02KT 3200 -RA BR FEW040 BKN046 OVC052 05/04 Q1021
  • 262330Z AUTO VRB02KT 3200 BR FEW010 BKN037 BKN047 05/04 Q1021

TAF TAF LFLB
Valide du 26 à 18h jusqu'au 27 à 18h UTC


261700Z 2618/2718 18005KT 9999 BKN050
TEMPO 2618/2624 4000 -SHRA FEW030TCU BKN035
BECMG 2700/2702 CAVOK
PROB40
TEMPO 2702/2706 3000 BR
BECMG 2715/2718 OVC080



MET'MAP, la Météo Aéronautique d'un coup d'oeil ! - Copyright ORBIFLY Décembre 2007 - Disclaimer

ORBIFLY MET'MAP TEAM :

Programmation & Développement : Alexandra Zaïnal
Sur une idée originale de : Baudouin d'Aumeries
Assistance à la programmation : Marc-Olivier Méhu
Soutien technique & logistique : Manuel Goepfert

Contact : metmap@orbifly.com




SOURCES & CREDITS :

   NOAA